Time;durP1;ratioP1;P1;durP2;ratioP2;P2;SDS_P1;SDS_P2;PMS_P1;PMS_P2;Temp;Humidity;BMP_temperature;BMP_pressure;BME280_temperature;BME280_humidity;BME280_pressure;Samples;Min_cycle;Max_cycle;Signal;HPM_P1;HPM_P2
2021/05/26 00:01:04;;;;;;;1.10;1.00;;;14.10;99.90;;;;;;5048894;28;20287;-64
2021/05/26 00:03:30;;;;;;;1.20;1.10;;;14.10;99.90;;;;;;5046754;28;20307;-65
2021/05/26 00:05:57;;;;;;;0.77;0.77;;;14.10;99.90;;;;;;5048852;28;20288;-65
2021/05/26 00:08:29;;;;;;;0.80;0.80;;;14.10;99.90;;;;;;5034695;28;20247;-65
2021/05/26 00:10:57;;;;;;;1.20;1.10;;;14.10;99.90;;;;;;5046924;28;20621;-64
2021/05/26 00:13:24;;;;;;;0.77;0.77;;;14.10;99.90;;;;;;5045569;28;20261;-64
2021/05/26 00:15:51;;;;;;;0.70;0.60;;;14.10;99.90;;;;;;5044335;28;20227;-64
2021/05/26 00:18:18;;;;;;;0.60;0.60;;;14.10;99.90;;;;;;5040811;28;20199;-64
2021/05/26 00:20:46;;;;;;;0.53;0.53;;;14.10;99.90;;;;;;5047533;28;20203;-64
2021/05/26 00:23:13;;;;;;;0.60;0.60;;;14.20;99.90;;;;;;5039090;28;20278;-65
2021/05/26 00:25:40;;;;;;;1.40;0.70;;;14.20;99.90;;;;;;5048117;28;20272;-63
2021/05/26 00:28:07;;;;;;;0.50;0.50;;;14.20;99.90;;;;;;5047045;28;20766;-64
2021/05/26 00:30:36;;;;;;;0.57;0.50;;;14.10;99.90;;;;;;5041613;28;20250;-63
2021/05/26 00:33:03;;;;;;;0.50;0.50;;;14.10;99.90;;;;;;5047491;28;20215;-64
2021/05/26 00:35:30;;;;;;;0.70;0.70;;;14.00;99.90;;;;;;5034913;28;20356;-64
2021/05/26 00:37:57;;;;;;;0.67;0.60;;;14.00;99.90;;;;;;5041841;28;20292;-65
2021/05/26 00:40:23;;;;;;;0.60;0.60;;;14.00;99.90;;;;;;5039797;28;20337;-65
2021/05/26 00:42:50;;;;;;;0.90;0.90;;;13.90;99.90;;;;;;5040008;28;20202;-65
2021/05/26 00:45:17;;;;;;;2.10;0.73;;;13.80;99.90;;;;;;5045447;28;21055;-64
2021/05/26 00:47:45;;;;;;;1.20;1.10;;;13.80;99.90;;;;;;5046881;28;20462;-66
2021/05/26 00:50:15;;;;;;;1.13;1.03;;;13.70;99.90;;;;;;5046980;28;20211;-64
2021/05/26 00:52:42;;;;;;;0.87;0.87;;;13.50;99.90;;;;;;5044529;28;20309;-64
2021/05/26 00:55:12;;;;;;;1.07;0.97;;;13.40;99.90;;;;;;5043874;28;20690;-64
2021/05/26 00:57:40;;;;;;;1.87;0.90;;;13.30;99.90;;;;;;5045881;28;20216;-64
2021/05/26 01:00:10;;;;;;;0.97;0.87;;;13.30;99.90;;;;;;5036280;28;20623;-62
2021/05/26 01:02:38;;;;;;;1.57;1.20;;;13.20;99.90;;;;;;5044052;28;20210;-64
2021/05/26 01:05:09;;;;;;;1.20;0.90;;;13.10;99.90;;;;;;5034056;28;20624;-64
2021/05/26 01:07:38;;;;;;;1.57;1.00;;;13.10;99.90;;;;;;5045920;28;20810;-64
2021/05/26 01:10:07;;;;;;;1.10;1.10;;;13.00;99.90;;;;;;5046346;28;20317;-65
2021/05/26 01:12:48;;;;;;;1.00;0.80;;;12.90;99.90;;;;;;5045320;28;20237;-64
2021/05/26 01:15:17;;;;;;;2.23;1.10;;;12.80;99.90;;;;;;5043118;28;20232;-64
2021/05/26 01:17:44;;;;;;;0.80;0.80;;;12.80;99.90;;;;;;5040546;28;20550;-64
2021/05/26 01:20:18;;;;;;;1.90;0.90;;;12.70;99.90;;;;;;5038323;28;20636;-63
2021/05/26 01:22:45;;;;;;;0.70;0.70;;;12.70;99.90;;;;;;5045588;28;20193;-64
2021/05/26 01:25:13;;;;;;;0.53;0.53;;;12.70;99.90;;;;;;5046573;28;20260;-64
2021/05/26 01:27:40;;;;;;;0.80;0.80;;;12.70;99.90;;;;;;5045472;28;20415;-64
2021/05/26 01:30:08;;;;;;;0.63;0.63;;;12.70;99.90;;;;;;5044495;28;20213;-63
2021/05/26 01:32:41;;;;;;;0.60;0.60;;;12.60;99.90;;;;;;5043916;28;20343;-63
2021/05/26 01:35:09;;;;;;;0.93;0.60;;;12.60;99.90;;;;;;5045292;28;20225;-64
2021/05/26 01:37:39;;;;;;;1.33;0.77;;;12.60;99.90;;;;;;5044993;28;20265;-64
2021/05/26 01:40:09;;;;;;;0.50;0.50;;;12.50;99.90;;;;;;5046106;28;20289;-64
2021/05/26 01:42:36;;;;;;;0.70;0.70;;;12.40;99.90;;;;;;5042640;28;20205;-64
2021/05/26 01:45:05;;;;;;;0.70;0.70;;;12.40;99.90;;;;;;5044673;28;20201;-64
2021/05/26 01:47:32;;;;;;;0.70;0.70;;;12.30;99.90;;;;;;5046693;28;20194;-64
2021/05/26 01:49:59;;;;;;;0.90;0.73;;;12.20;99.90;;;;;;5045102;28;20208;-64
2021/05/26 01:52:26;;;;;;;0.70;0.70;;;12.10;99.90;;;;;;5044211;28;20209;-64
2021/05/26 01:54:52;;;;;;;0.63;0.63;;;12.00;99.90;;;;;;5046083;28;20679;-64
2021/05/26 01:57:20;;;;;;;0.60;0.60;;;11.90;99.90;;;;;;5045095;28;20190;-64
2021/05/26 01:59:47;;;;;;;0.60;0.60;;;11.80;99.90;;;;;;5040976;28;20214;-63
2021/05/26 02:02:18;;;;;;;0.50;0.50;;;11.80;99.90;;;;;;5043417;28;20202;-65
2021/05/26 02:04:45;;;;;;;0.67;0.67;;;11.70;99.90;;;;;;5043693;28;20241;-64
2021/05/26 02:07:12;;;;;;;0.50;0.50;;;11.70;99.90;;;;;;5043568;28;20207;-64
2021/05/26 02:09:40;;;;;;;0.40;0.40;;;11.80;99.90;;;;;;5042966;28;20225;-64
2021/05/26 02:12:21;;;;;;;0.60;0.60;;;11.80;99.90;;;;;;5043592;28;20671;-64
2021/05/26 02:14:52;;;;;;;0.60;0.60;;;11.80;99.90;;;;;;5038679;28;20602;-63
2021/05/26 02:17:19;;;;;;;0.63;0.53;;;11.70;99.90;;;;;;5040311;28;20604;-63
2021/05/26 02:19:47;;;;;;;2.00;0.60;;;11.60;99.90;;;;;;5037223;28;20198;-64
2021/05/26 02:22:13;;;;;;;0.70;0.70;;;11.60;99.90;;;;;;5039830;28;20198;-64
2021/05/26 02:24:40;;;;;;;0.80;0.80;;;11.50;99.90;;;;;;5045702;28;20286;-66
2021/05/26 02:27:08;;;;;;;0.73;0.60;;;11.40;99.90;;;;;;5045211;28;20282;-64
2021/05/26 02:29:34;;;;;;;0.50;0.50;;;11.40;99.90;;;;;;5043556;28;20199;-65
2021/05/26 02:32:02;;;;;;;0.60;0.60;;;11.40;99.90;;;;;;5045186;28;20544;-64
2021/05/26 02:34:38;;;;;;;0.73;0.60;;;11.40;99.90;;;;;;5043091;28;20205;-64
2021/05/26 02:37:04;;;;;;;0.60;0.60;;;11.40;99.90;;;;;;5044500;28;20212;-63
2021/05/26 02:39:32;;;;;;;0.90;0.60;;;11.40;99.90;;;;;;5043432;28;20582;-64
2021/05/26 02:42:01;;;;;;;0.50;0.50;;;11.40;99.90;;;;;;5043918;28;20231;-65
2021/05/26 02:44:28;;;;;;;0.50;0.50;;;11.40;99.90;;;;;;5036690;28;20210;-64
2021/05/26 02:46:54;;;;;;;0.53;0.53;;;11.40;99.90;;;;;;5040802;28;20205;-64
2021/05/26 02:49:22;;;;;;;0.60;0.60;;;11.40;99.90;;;;;;5057343;28;20206;-64
2021/05/26 02:51:48;;;;;;;0.70;0.70;;;11.40;99.90;;;;;;5041014;28;20229;-64
2021/05/26 02:54:15;;;;;;;0.77;0.50;;;11.30;99.90;;;;;;5043553;28;20211;-63
2021/05/26 02:56:44;;;;;;;0.80;0.80;;;11.20;99.90;;;;;;5046244;28;20316;-64
2021/05/26 02:59:29;;;;;;;0.60;0.50;;;11.30;99.90;;;;;;5042565;28;20324;-64
2021/05/26 03:02:14;;;;;;;0.60;0.60;;;11.20;99.90;;;;;;5046034;28;20238;-63
2021/05/26 03:04:48;;;;;;;0.40;0.40;;;11.20;99.90;;;;;;5043719;28;20295;-64
2021/05/26 03:07:16;;;;;;;0.57;0.57;;;11.20;99.90;;;;;;5036884;28;20193;-64
2021/05/26 03:09:44;;;;;;;0.40;0.40;;;11.20;99.90;;;;;;5043907;28;20330;-64
2021/05/26 03:12:12;;;;;;;0.40;0.40;;;11.20;99.90;;;;;;5050068;28;20632;-64
2021/05/26 03:14:46;;;;;;;0.70;0.70;;;11.30;99.90;;;;;;5043609;28;20674;-64
2021/05/26 03:17:14;;;;;;;0.40;0.40;;;11.30;99.90;;;;;;5049544;28;20668;-65
2021/05/26 03:19:42;;;;;;;0.70;0.60;;;11.30;99.90;;;;;;5045267;28;20221;-65
2021/05/26 03:22:33;;;;;;;0.57;0.50;;;11.30;99.90;;;;;;5006849;28;20203;-63
2021/05/26 03:25:35;;;;;;;0.80;0.50;;;11.30;99.90;;;;;;5007253;28;20572;-64
2021/05/26 03:28:08;;;;;;;0.70;0.70;;;11.30;99.90;;;;;;4989910;28;20218;-63
2021/05/26 03:30:35;;;;;;;1.87;0.43;;;11.30;99.90;;;;;;5005531;28;20632;-63
2021/05/26 03:33:04;;;;;;;0.50;0.50;;;11.30;99.90;;;;;;5006076;28;20211;-64
2021/05/26 03:35:32;;;;;;;0.60;0.57;;;11.30;99.90;;;;;;4990851;28;20821;-65
2021/05/26 03:38:01;;;;;;;0.50;0.50;;;11.30;99.90;;;;;;5006211;28;20203;-65
2021/05/26 03:40:30;;;;;;;0.60;0.60;;;11.30;99.90;;;;;;5006145;28;20211;-64
2021/05/26 03:42:59;;;;;;;0.70;0.70;;;11.30;99.90;;;;;;5002694;28;20565;-64
2021/05/26 03:45:37;;;;;;;0.60;0.60;;;11.40;99.90;;;;;;4987648;28;20286;-65
2021/05/26 03:48:08;;;;;;;0.70;0.70;;;11.40;99.90;;;;;;5003677;28;20208;-64
2021/05/26 03:50:34;;;;;;;1.10;0.77;;;11.40;99.90;;;;;;5006168;28;20221;-64
2021/05/26 03:53:02;;;;;;;0.70;0.70;;;11.40;99.90;;;;;;5003404;28;20210;-63
2021/05/26 03:55:29;;;;;;;0.90;0.90;;;11.40;99.90;;;;;;5006211;28;20219;-63
2021/05/26 03:58:15;;;;;;;0.73;0.73;;;11.50;99.90;;;;;;5005419;28;20301;-65
2021/05/26 04:00:42;;;;;;;0.83;0.70;;;11.50;99.90;;;;;;5031960;28;20292;-65
2021/05/26 04:03:18;;;;;;;0.70;0.70;;;11.50;99.90;;;;;;5036040;28;20217;-65
2021/05/26 04:05:45;;;;;;;0.53;0.53;;;11.50;99.90;;;;;;5046927;28;20274;-65
2021/05/26 04:08:13;;;;;;;0.57;0.57;;;11.60;99.90;;;;;;5048280;28;20537;-65
2021/05/26 04:10:40;;;;;;;0.80;0.80;;;11.60;99.90;;;;;;5043737;28;20261;-65
2021/05/26 04:13:23;;;;;;;2.00;0.70;;;11.70;99.90;;;;;;5044122;28;20234;-64
2021/05/26 04:15:56;;;;;;;0.80;0.80;;;11.70;99.90;;;;;;5047082;28;20220;-64
2021/05/26 04:18:55;;;;;;;0.70;0.70;;;11.70;99.90;;;;;;5025306;28;20288;-64
2021/05/26 04:21:22;;;;;;;1.10;1.00;;;11.70;99.90;;;;;;5024742;28;20198;-64
2021/05/26 04:23:50;;;;;;;0.90;0.90;;;11.70;99.90;;;;;;5024781;28;20221;-64
2021/05/26 04:26:18;;;;;;;1.17;0.70;;;11.80;99.90;;;;;;5025974;28;20653;-64
2021/05/26 04:28:45;;;;;;;0.70;0.70;;;11.80;99.90;;;;;;5022956;28;20224;-64
2021/05/26 04:31:15;;;;;;;0.77;0.77;;;11.90;99.90;;;;;;5025404;28;20686;-65
2021/05/26 04:33:43;;;;;;;1.50;1.20;;;11.90;99.90;;;;;;5024476;28;20324;-64
2021/05/26 04:36:10;;;;;;;0.90;0.90;;;11.90;99.90;;;;;;5025464;28;20584;-64
2021/05/26 04:38:37;;;;;;;0.93;0.93;;;11.90;99.90;;;;;;5025146;28;20209;-64
2021/05/26 04:41:05;;;;;;;1.00;1.00;;;12.00;99.90;;;;;;5025140;28;20210;-64
2021/05/26 04:43:33;;;;;;;1.90;1.07;;;12.10;99.90;;;;;;5022059;28;20205;-64
2021/05/26 04:46:00;;;;;;;1.27;1.10;;;12.10;99.90;;;;;;5021258;28;20201;-64
2021/05/26 04:48:28;;;;;;;1.10;1.00;;;12.20;99.90;;;;;;5025064;28;20335;-64
2021/05/26 04:50:55;;;;;;;0.77;0.77;;;12.20;99.90;;;;;;5025172;28;20254;-64
2021/05/26 04:53:22;;;;;;;0.93;0.93;;;12.30;99.90;;;;;;5024266;28;20234;-65
2021/05/26 04:55:48;;;;;;;0.80;0.80;;;12.30;99.90;;;;;;5040227;28;20541;-64
2021/05/26 04:58:16;;;;;;;0.90;0.90;;;12.40;99.90;;;;;;5043354;28;20579;-64
2021/05/26 05:00:42;;;;;;;1.00;1.00;;;12.50;99.90;;;;;;5039073;28;20201;-64
2021/05/26 05:03:08;;;;;;;1.00;1.00;;;12.60;99.90;;;;;;5047616;28;20602;-64
2021/05/26 05:05:35;;;;;;;0.60;0.60;;;12.80;99.90;;;;;;5047518;28;20800;-63
2021/05/26 05:08:04;;;;;;;0.70;0.70;;;12.80;99.90;;;;;;5047924;28;20205;-64
2021/05/26 05:10:31;;;;;;;2.13;0.70;;;12.90;99.90;;;;;;5047352;28;20742;-64
2021/05/26 05:12:57;;;;;;;0.90;0.80;;;13.10;99.90;;;;;;5047149;28;20216;-64
2021/05/26 05:15:25;;;;;;;0.90;0.87;;;13.20;99.90;;;;;;5044878;28;20300;-64
2021/05/26 05:17:51;;;;;;;0.67;0.67;;;13.20;99.90;;;;;;5046228;28;20755;-64
2021/05/26 05:20:20;;;;;;;0.63;0.63;;;13.20;99.90;;;;;;5041435;28;20281;-64
2021/05/26 05:22:47;;;;;;;0.80;0.80;;;13.30;99.90;;;;;;5042330;28;20203;-63
2021/05/26 05:25:13;;;;;;;0.90;0.90;;;13.50;99.90;;;;;;5046119;28;20299;-64
2021/05/26 05:27:40;;;;;;;2.23;1.30;;;13.50;99.90;;;;;;5036709;28;20267;-64
2021/05/26 05:30:08;;;;;;;0.80;0.80;;;13.50;99.90;;;;;;5041426;28;20212;-64
2021/05/26 05:32:35;;;;;;;0.90;0.90;;;13.60;99.90;;;;;;5039488;28;20191;-63
2021/05/26 05:35:02;;;;;;;0.70;0.70;;;13.60;99.90;;;;;;5045880;28;20189;-63
2021/05/26 05:37:29;;;;;;;1.10;1.10;;;13.80;99.90;;;;;;5047170;28;20289;-64
2021/05/26 05:39:55;;;;;;;1.40;1.30;;;13.90;99.90;;;;;;5041608;28;20590;-64
2021/05/26 05:42:22;;;;;;;1.00;1.00;;;14.00;99.90;;;;;;5043813;28;20366;-63
2021/05/26 05:44:48;;;;;;;0.90;0.90;;;14.10;99.90;;;;;;5043166;28;20793;-63
2021/05/26 05:47:15;;;;;;;1.63;1.20;;;14.20;99.90;;;;;;5040713;28;20285;-63
2021/05/26 05:49:42;;;;;;;1.20;1.20;;;14.40;99.90;;;;;;5039499;28;20205;-64
2021/05/26 05:52:10;;;;;;;1.50;1.20;;;14.60;99.90;;;;;;5046444;28;20928;-64
2021/05/26 05:54:38;;;;;;;2.13;1.20;;;14.70;99.90;;;;;;5044054;28;20199;-64
2021/05/26 05:57:06;;;;;;;3.10;1.30;;;14.80;99.90;;;;;;5037591;28;20309;-64
2021/05/26 05:59:33;;;;;;;1.00;1.00;;;14.80;99.90;;;;;;5043497;28;20239;-64
2021/05/26 06:02:01;;;;;;;0.93;0.93;;;14.90;99.90;;;;;;5043264;28;20204;-65
2021/05/26 06:04:27;;;;;;;1.07;1.00;;;15.20;99.90;;;;;;5044360;28;20215;-64
2021/05/26 06:06:55;;;;;;;1.27;1.17;;;16.40;99.90;;;;;;5045885;28;20200;-64
2021/05/26 06:09:21;;;;;;;2.40;1.00;;;17.00;99.90;;;;;;5044964;28;20309;-65
2021/05/26 06:11:48;;;;;;;0.80;0.80;;;17.30;99.90;;;;;;5037280;28;20292;-64
2021/05/26 06:14:18;;;;;;;1.43;1.00;;;17.30;99.90;;;;;;5042638;28;20682;-64
2021/05/26 06:16:45;;;;;;;1.90;1.20;;;17.50;99.90;;;;;;5045908;28;20634;-64
2021/05/26 06:19:12;;;;;;;2.70;1.07;;;18.30;99.90;;;;;;5038904;28;20214;-64
2021/05/26 06:21:38;;;;;;;1.10;1.00;;;18.70;99.50;;;;;;5042575;28;20204;-63
2021/05/26 06:24:07;;;;;;;1.10;1.00;;;19.70;97.70;;;;;;5031869;28;20563;-64
2021/05/26 06:26:34;;;;;;;1.00;0.90;;;20.40;94.40;;;;;;5025147;28;20819;-64
2021/05/26 06:29:01;;;;;;;0.90;0.90;;;20.40;92.70;;;;;;5033383;28;20747;-64
2021/05/26 06:31:28;;;;;;;1.00;1.00;;;20.10;92.00;;;;;;5037057;28;20195;-64
2021/05/26 06:33:54;;;;;;;1.43;1.00;;;20.50;91.90;;;;;;5041149;28;20226;-64
2021/05/26 06:36:21;;;;;;;2.80;1.45;;;20.80;90.20;;;;;;5037658;28;20229;-65
2021/05/26 06:38:47;;;;;;;0.90;0.90;;;21.10;89.70;;;;;;5032616;28;20399;-65
2021/05/26 06:41:15;;;;;;;1.20;1.00;;;22.60;84.90;;;;;;5032129;28;20278;-64
2021/05/26 06:43:41;;;;;;;0.80;0.70;;;24.90;76.40;;;;;;5032596;28;20360;-62
2021/05/26 06:46:08;;;;;;;1.13;0.80;;;26.40;68.60;;;;;;5028501;28;20623;-65
2021/05/26 06:48:34;;;;;;;0.68;0.60;;;28.00;63.30;;;;;;5042623;28;20198;-65
2021/05/26 06:51:01;;;;;;;1.63;0.60;;;28.80;60.00;;;;;;5044087;28;20638;-66
2021/05/26 06:53:30;;;;;;;0.82;0.82;;;29.40;57.60;;;;;;5041260;28;20205;-66
2021/05/26 06:55:56;;;;;;;0.68;0.68;;;29.90;55.20;;;;;;5040797;28;20736;-65
2021/05/26 06:58:23;;;;;;;0.80;0.80;;;29.90;54.10;;;;;;5033609;28;20263;-65
2021/05/26 07:00:50;;;;;;;0.80;0.80;;;30.30;53.40;;;;;;5035693;28;20206;-65
2021/05/26 07:03:16;;;;;;;1.27;0.88;;;31.30;51.30;;;;;;5041387;28;20603;-65
2021/05/26 07:05:43;;;;;;;0.80;0.80;;;33.40;48.30;;;;;;5039021;28;20479;-65
2021/05/26 07:08:09;;;;;;;0.88;0.88;;;35.50;44.50;;;;;;5039146;28;20202;-65
2021/05/26 07:10:36;;;;;;;1.58;0.95;;;37.20;40.60;;;;;;5044737;28;20209;-66
2021/05/26 07:13:02;;;;;;;0.90;0.90;;;38.50;38.00;;;;;;5033211;28;20198;-65
2021/05/26 07:15:30;;;;;;;0.95;0.90;;;39.10;36.40;;;;;;5040799;28;20956;-66
2021/05/26 07:17:56;;;;;;;2.50;0.90;;;39.80;34.60;;;;;;5044183;28;20247;-67
2021/05/26 07:20:23;;;;;;;0.90;0.90;;;40.30;33.30;;;;;;5070228;28;20542;-66
2021/05/26 07:22:50;;;;;;;0.90;0.90;;;40.10;32.80;;;;;;5041447;28;20197;-66
2021/05/26 07:25:16;;;;;;;2.13;0.88;;;38.30;32.60;;;;;;5042124;28;20220;-67
2021/05/26 07:27:43;;;;;;;1.55;1.00;;;36.00;34.00;;;;;;5047844;28;20594;-66
2021/05/26 07:30:10;;;;;;;0.98;0.98;;;34.20;35.50;;;;;;5037767;28;20206;-66
2021/05/26 07:32:38;;;;;;;0.70;0.70;;;32.20;36.40;;;;;;5040247;28;20241;-66
2021/05/26 07:35:05;;;;;;;0.88;0.88;;;30.60;37.70;;;;;;5037700;28;20286;-66
2021/05/26 07:37:31;;;;;;;0.90;0.90;;;29.40;39.10;;;;;;5033909;28;20560;-66
2021/05/26 07:39:58;;;;;;;2.25;1.10;;;28.40;40.00;;;;;;5037516;28;20204;-66
2021/05/26 07:42:24;;;;;;;4.38;1.10;;;27.50;41.00;;;;;;5036161;28;20197;-67
2021/05/26 07:44:51;;;;;;;0.95;0.73;;;26.60;41.60;;;;;;5027310;28;20408;-67
2021/05/26 07:47:17;;;;;;;0.60;0.60;;;25.90;42.40;;;;;;5043800;28;20280;-66
2021/05/26 07:49:44;;;;;;;0.63;0.63;;;25.30;43.10;;;;;;5036406;28;20305;-66
2021/05/26 07:52:13;;;;;;;0.75;0.75;;;25.00;44.10;;;;;;5030726;28;20209;-66
2021/05/26 07:54:40;;;;;;;4.07;1.00;;;24.80;44.40;;;;;;5039569;28;20198;-66
2021/05/26 07:57:07;;;;;;;2.47;1.08;;;24.50;44.30;;;;;;5037642;28;20226;-66
2021/05/26 07:59:33;;;;;;;0.80;0.80;;;24.20;44.50;;;;;;5039861;28;20206;-65
2021/05/26 08:02:00;;;;;;;0.70;0.70;;;24.00;44.70;;;;;;5041768;28;20202;-66
2021/05/26 08:04:27;;;;;;;0.73;0.70;;;23.70;45.00;;;;;;5038318;28;20194;-67
2021/05/26 08:06:54;;;;;;;2.35;0.70;;;23.50;45.90;;;;;;5036689;28;20272;-66
2021/05/26 08:09:21;;;;;;;0.60;0.60;;;23.40;45.90;;;;;;5041031;28;20258;-67
2021/05/26 08:11:47;;;;;;;2.92;0.80;;;23.30;45.90;;;;;;5037428;28;20229;-65
2021/05/26 08:14:14;;;;;;;0.80;0.80;;;23.30;46.60;;;;;;5037404;28;20206;-65
2021/05/26 08:16:40;;;;;;;0.60;0.60;;;23.20;46.90;;;;;;5042162;28;20210;-66
2021/05/26 08:19:07;;;;;;;1.20;0.60;;;23.20;47.10;;;;;;5033055;28;20283;-66
2021/05/26 08:21:33;;;;;;;0.98;0.90;;;23.10;47.10;;;;;;5037133;28;20613;-66
2021/05/26 08:24:01;;;;;;;0.70;0.70;;;23.00;46.80;;;;;;5026645;28;20225;-66
2021/05/26 08:26:27;;;;;;;1.85;0.70;;;22.90;47.20;;;;;;5032401;28;20202;-66
2021/05/26 08:28:54;;;;;;;0.80;0.80;;;22.90;47.50;;;;;;5037131;28;20283;-66
2021/05/26 08:31:21;;;;;;;1.40;0.70;;;22.90;47.60;;;;;;5034017;28;20214;-66
2021/05/26 08:33:48;;;;;;;0.80;0.80;;;22.90;47.40;;;;;;5033228;28;20220;-65
2021/05/26 08:36:14;;;;;;;0.90;0.90;;;23.00;47.40;;;;;;5042860;28;20544;-65
2021/05/26 08:38:40;;;;;;;1.40;0.88;;;23.10;47.30;;;;;;5037771;28;20214;-64
2021/05/26 08:41:09;;;;;;;0.70;0.70;;;23.20;47.10;;;;;;5036497;28;20285;-65
2021/05/26 08:43:38;;;;;;;0.90;0.90;;;23.20;46.80;;;;;;5032409;28;20206;-65
2021/05/26 08:46:05;;;;;;;1.10;1.00;;;23.20;46.80;;;;;;5036390;28;20225;-65
2021/05/26 08:48:33;;;;;;;1.30;0.80;;;23.00;46.40;;;;;;5033722;28;20289;-64
2021/05/26 08:51:00;;;;;;;0.80;0.80;;;22.90;46.90;;;;;;5042852;28;20276;-64
2021/05/26 08:53:28;;;;;;;1.20;0.80;;;23.00;47.30;;;;;;5038242;28;20249;-65
2021/05/26 08:55:55;;;;;;;0.80;0.80;;;23.00;47.40;;;;;;5044583;28;20682;-64
2021/05/26 08:58:23;;;;;;;0.70;0.70;;;23.10;47.50;;;;;;5039799;28;20350;-64
2021/05/26 09:00:49;;;;;;;1.38;1.08;;;23.20;47.50;;;;;;5042304;28;20206;-64
2021/05/26 09:03:16;;;;;;;0.77;0.77;;;23.20;47.30;;;;;;5038984;28;20215;-65
2021/05/26 09:05:43;;;;;;;3.83;0.85;;;23.10;47.30;;;;;;5036313;28;20727;-64
2021/05/26 09:08:18;;;;;;;22.20;5.90;;;22.90;47.30;;;;;;5040469;28;20214;-64
2021/05/26 09:10:49;;;;;;;6.45;1.85;;;22.70;47.40;;;;;;5034907;28;20236;-64
2021/05/26 09:13:29;;;;;;;0.75;0.73;;;22.40;48.00;;;;;;5039136;28;20555;-64
2021/05/26 09:15:56;;;;;;;1.05;1.00;;;22.20;47.60;;;;;;5034492;28;20221;-64
2021/05/26 09:18:23;;;;;;;0.82;0.80;;;22.10;47.50;;;;;;5041701;28;20237;-64
2021/05/26 09:20:50;;;;;;;1.10;1.10;;;22.00;47.80;;;;;;5042050;28;20205;-64
2021/05/26 09:23:19;;;;;;;0.60;0.60;;;21.90;48.00;;;;;;5038172;28;20666;-64
2021/05/26 09:25:55;;;;;;;0.82;0.82;;;21.70;48.20;;;;;;5034964;28;20226;-65
2021/05/26 09:28:34;;;;;;;1.67;0.80;;;21.50;48.40;;;;;;5039616;28;20209;-64
2021/05/26 09:31:04;;;;;;;0.90;0.90;;;21.20;48.50;;;;;;5040238;28;20739;-63
2021/05/26 09:33:36;;;;;;;0.88;0.68;;;21.00;49.10;;;;;;5034969;28;20294;-64
2021/05/26 09:36:14;;;;;;;0.98;0.98;;;20.80;49.60;;;;;;5038120;28;20278;-64
2021/05/26 09:38:42;;;;;;;0.63;0.63;;;20.50;50.50;;;;;;5038046;28;20228;-64
2021/05/26 09:41:13;;;;;;;0.65;0.65;;;20.40;50.20;;;;;;5042188;28;20206;-64
2021/05/26 09:43:43;;;;;;;0.95;0.80;;;20.20;50.50;;;;;;5036955;28;20602;-66
2021/05/26 09:46:27;;;;;;;1.33;0.90;;;20.20;50.70;;;;;;5040028;28;20195;-65
2021/05/26 09:49:16;;;;;;;0.70;0.70;;;20.20;50.70;;;;;;5038155;28;20198;-63
2021/05/26 09:51:45;;;;;;;2.28;0.70;;;20.10;50.70;;;;;;4991818;28;20214;-64
2021/05/26 09:54:20;;;;;;;1.05;1.05;;;20.10;51.00;;;;;;4987379;28;20702;-64
2021/05/26 09:56:48;;;;;;;0.80;0.80;;;20.30;51.30;;;;;;4997137;28;20231;-63
2021/05/26 09:59:16;;;;;;;2.20;0.80;;;20.50;51.10;;;;;;4995782;28;20214;-64
2021/05/26 10:01:43;;;;;;;1.70;0.70;;;20.70;51.20;;;;;;4995115;28;20678;-65
2021/05/26 10:04:10;;;;;;;1.08;1.08;;;20.70;51.10;;;;;;4971572;28;20903;-65
2021/05/26 10:06:40;;;;;;;1.95;1.10;;;20.50;51.10;;;;;;4976497;28;20548;-65
2021/05/26 10:09:25;;;;;;;0.98;0.98;;;20.30;51.50;;;;;;4997452;28;20281;-65
2021/05/26 10:12:15;;;;;;;1.25;1.15;;;20.10;51.90;;;;;;4973652;28;20212;-67
2021/05/26 10:14:44;;;;;;;1.38;1.15;;;20.00;52.00;;;;;;4949466;28;20355;-66
2021/05/26 10:17:17;;;;;;;3.10;1.20;;;20.20;52.20;;;;;;4966821;28;20246;-66
2021/05/26 10:19:44;;;;;;;0.95;0.93;;;20.40;52.20;;;;;;4951604;28;20294;-65
2021/05/26 10:22:11;;;;;;;1.95;0.60;;;20.50;52.20;;;;;;4978635;28;20626;-64
2021/05/26 10:24:38;;;;;;;0.60;0.60;;;20.70;52.00;;;;;;4973584;28;20204;-64
2021/05/26 10:27:06;;;;;;;0.88;0.88;;;21.20;51.80;;;;;;4959136;28;20728;-64
2021/05/26 10:29:38;;;;;;;1.17;1.00;;;21.60;51.40;;;;;;5005756;28;20195;-64
2021/05/26 10:32:08;;;;;;;0.95;0.95;;;22.40;51.00;;;;;;5037862;28;20685;-64
2021/05/26 10:35:10;;;;;;;1.75;0.90;;;22.80;50.10;;;;;;5036783;28;20936;-64
2021/05/26 10:37:41;;;;;;;0.50;0.50;;;22.50;49.20;;;;;;4972344;28;20921;-64
2021/05/26 10:40:33;;;;;;;0.93;0.80;;;22.20;49.60;;;;;;4972780;28;20310;-64
2021/05/26 10:43:37;;;;;;;2.83;0.98;;;21.90;49.50;;;;;;4897744;29;20215;-66
2021/05/26 10:46:05;;;;;;;2.33;0.70;;;21.60;49.70;;;;;;4887057;29;20578;-66
2021/05/26 10:49:04;;;;;;;1.02;0.60;;;21.50;49.70;;;;;;4902823;29;20254;-66
2021/05/26 10:52:07;;;;;;;1.42;0.73;;;21.50;50.10;;;;;;4920148;29;20484;-66
2021/05/26 10:55:01;;;;;;;0.57;0.57;;;21.30;50.30;;;;;;4920651;29;20367;-67
2021/05/26 10:57:29;;;;;;;0.93;0.80;;;21.00;50.50;;;;;;4920108;29;20237;-66
2021/05/26 11:00:31;;;;;;;2.35;0.80;;;20.90;50.70;;;;;;4933410;29;20238;-66
2021/05/26 11:03:39;;;;;;;0.88;0.75;;;20.80;50.80;;;;;;4904608;29;20695;-66
2021/05/26 11:06:36;;;;;;;1.27;0.65;;;20.70;50.90;;;;;;4885692;29;20203;-67
2021/05/26 11:09:06;;;;;;;0.63;0.63;;;20.70;51.00;;;;;;4900290;29;20234;-67
2021/05/26 11:11:52;;;;;;;0.80;0.80;;;20.70;51.00;;;;;;4903074;29;20463;-65
2021/05/26 11:14:27;;;;;;;0.60;0.60;;;20.80;51.00;;;;;;4903901;29;20312;-65
2021/05/26 11:17:37;;;;;;;0.63;0.63;;;20.90;51.10;;;;;;4940223;28;20290;-66
2021/05/26 11:20:15;;;;;;;0.70;0.70;;;21.30;51.20;;;;;;4991567;28;20651;-66
2021/05/26 11:22:44;;;;;;;0.82;0.70;;;21.80;50.70;;;;;;5009391;28;20274;-66
2021/05/26 11:25:11;;;;;;;0.50;0.50;;;22.00;50.00;;;;;;5032357;28;20246;-65
2021/05/26 11:27:47;;;;;;;1.15;0.70;;;22.20;50.00;;;;;;5024517;28;20229;-66
2021/05/26 11:30:17;;;;;;;0.90;0.90;;;22.30;49.90;;;;;;5024975;28;20281;-66
2021/05/26 11:32:44;;;;;;;1.08;0.90;;;22.60;49.50;;;;;;5021924;28;20241;-66
2021/05/26 11:35:10;;;;;;;0.85;0.60;;;22.70;49.10;;;;;;5027515;28;20313;-65
2021/05/26 11:37:40;;;;;;;0.95;0.70;;;22.80;48.90;;;;;;5010466;28;20337;-66
2021/05/26 11:40:28;;;;;;;2.00;0.82;;;22.90;49.50;;;;;;5039518;28;20198;-66
2021/05/26 11:42:59;;;;;;;0.80;0.73;;;23.00;48.30;;;;;;5031171;28;20206;-66
2021/05/26 11:45:26;;;;;;;0.65;0.65;;;23.00;48.00;;;;;;5068696;28;20223;-67
2021/05/26 11:47:56;;;;;;;1.73;0.77;;;23.00;48.30;;;;;;5042016;28;20268;-67
2021/05/26 11:50:27;;;;;;;0.65;0.65;;;22.80;48.10;;;;;;5039433;28;20213;-65
2021/05/26 11:53:12;;;;;;;1.00;0.90;;;22.60;48.20;;;;;;5042861;28;21325;-66
2021/05/26 11:55:43;;;;;;;1.08;1.08;;;22.40;48.10;;;;;;5043744;28;20194;-66
2021/05/26 11:58:09;;;;;;;0.70;0.70;;;22.20;48.10;;;;;;5038435;28;20202;-65
2021/05/26 12:00:37;;;;;;;0.70;0.70;;;22.10;48.20;;;;;;5072579;28;20806;-66
2021/05/26 12:03:05;;;;;;;0.73;0.73;;;22.10;48.50;;;;;;5043204;28;20225;-66
2021/05/26 12:05:40;;;;;;;0.82;0.60;;;22.30;48.50;;;;;;5037260;28;20186;-66
2021/05/26 12:08:18;;;;;;;0.80;0.80;;;22.30;48.00;;;;;;5034696;28;20202;-65
2021/05/26 12:10:47;;;;;;;0.70;0.70;;;22.20;48.10;;;;;;5036245;28;20710;-65
2021/05/26 12:13:18;;;;;;;0.60;0.60;;;22.10;48.30;;;;;;5036430;28;20186;-66
2021/05/26 12:15:45;;;;;;;1.15;0.80;;;22.10;48.50;;;;;;5065851;28;21138;-67
2021/05/26 12:18:11;;;;;;;1.38;0.95;;;22.00;48.40;;;;;;5039860;28;20263;-67
2021/05/26 12:20:43;;;;;;;1.95;0.60;;;21.80;48.20;;;;;;5026490;28;20588;-67
2021/05/26 12:23:10;;;;;;;0.70;0.70;;;21.80;48.30;;;;;;5037579;28;20312;-66
2021/05/26 12:25:39;;;;;;;0.60;0.60;;;21.80;48.40;;;;;;5035441;28;20289;-65
2021/05/26 12:28:18;;;;;;;1.67;0.77;;;22.00;48.60;;;;;;5038666;28;20248;-66
2021/05/26 12:30:45;;;;;;;1.30;0.90;;;22.10;48.30;;;;;;5038388;28;20232;-67
2021/05/26 12:33:23;;;;;;;0.80;0.80;;;22.10;48.40;;;;;;5040365;28;20610;-66
2021/05/26 12:36:06;;;;;;;1.40;0.90;;;22.10;48.30;;;;;;5041078;28;20714;-67
2021/05/26 12:38:35;;;;;;;0.90;0.90;;;21.90;48.30;;;;;;5037116;28;20292;-66
2021/05/26 12:41:22;;;;;;;0.70;0.70;;;21.90;49.30;;;;;;5038257;28;20226;-67
2021/05/26 12:43:50;;;;;;;1.00;0.90;;;21.90;48.90;;;;;;5034811;28;20210;-67
2021/05/26 12:46:40;;;;;;;0.70;0.70;;;21.80;49.20;;;;;;5039944;28;20506;-68
2021/05/26 12:49:08;;;;;;;0.75;0.75;;;21.70;48.80;;;;;;5036394;28;20209;-66
2021/05/26 12:51:43;;;;;;;0.65;0.65;;;21.60;48.80;;;;;;5043375;28;20186;-68
2021/05/26 12:54:10;;;;;;;1.25;0.98;;;21.50;48.80;;;;;;5038882;28;20208;-65
2021/05/26 12:56:36;;;;;;;0.88;0.88;;;21.40;48.80;;;;;;5041993;28;20244;-66
2021/05/26 12:59:04;;;;;;;0.93;0.93;;;21.20;48.90;;;;;;5030674;28;20194;-66
2021/05/26 13:01:31;;;;;;;1.13;0.80;;;21.20;48.90;;;;;;5036715;28;20510;-66
2021/05/26 13:04:13;;;;;;;0.70;0.70;;;21.10;49.70;;;;;;5031073;28;20196;-67